logo
Search for airport 
image banner adimage banner adimage banner ad
image banner ad

MMCTL - Coyotillos

Located in Juárez, Mexico

ICAO - , IATA -

Data provided by Airmate  

General information

Coordinates: N27°40'51" W100°35'34"
Elevation is 912 feet MSL.
Magnetic variation is 4° East
View others Airports in Coahuila

Operational data

Special qualification required
Current time UTC:
Current local time:
Weather at : - ( 0 km )
METAR: EKYT 180723Z 02007KT 350V050 CAVOK 07/M01 Q1014
View NOTAMs / SUP AIP / TFR affecting this airport [VIEW]
Communications frequencies: [VIEW]

Runways:

Airport contact information

Address: Juárez Mexico

Satellite view of MMCTL